Time;durP1;ratioP1;P1;durP2;ratioP2;P2;SDS_P1;SDS_P2;PMS_P1;PMS_P2;Temp;Humidity;BMP_temperature;BMP_pressure;BME280_temperature;BME280_humidity;BME280_pressure;Samples;Min_cycle;Max_cycle;Signal;HPM_P1;HPM_P2
2023/09/07 00:02:01;;;;;;;5.05;3.30;;;18.50;89.50;;;;;;5049477;28;20063;-48
2023/09/07 00:04:31;;;;;;;6.70;2.92;;;18.50;89.50;;;;;;5048024;28;20028;-52
2023/09/07 00:07:01;;;;;;;3.35;2.60;;;18.50;89.40;;;;;;5058217;28;20047;-48
2023/09/07 00:09:28;;;;;;;5.78;3.58;;;18.40;89.50;;;;;;5052358;28;20036;-47
2023/09/07 00:11:55;;;;;;;4.22;3.10;;;18.40;89.60;;;;;;5036577;28;20086;-49
2023/09/07 00:14:22;;;;;;;4.32;3.17;;;18.40;89.70;;;;;;5034815;28;20112;-48
2023/09/07 00:16:49;;;;;;;6.95;3.10;;;18.40;89.60;;;;;;5053193;28;20029;-47
2023/09/07 00:19:18;;;;;;;4.93;4.07;;;18.40;89.70;;;;;;5046098;28;20069;-50
2023/09/07 00:21:45;;;;;;;6.80;3.38;;;18.40;89.80;;;;;;5035840;28;20032;-50
2023/09/07 00:24:10;;;;;;;6.03;3.70;;;18.30;89.80;;;;;;5046646;28;20462;-49
2023/09/07 00:26:36;;;;;;;5.18;3.63;;;18.30;89.80;;;;;;5052721;28;20041;-49
2023/09/07 00:29:03;;;;;;;4.43;3.22;;;18.30;89.80;;;;;;5054502;28;20044;-51
2023/09/07 00:31:29;;;;;;;4.55;3.63;;;18.20;89.80;;;;;;5035473;28;20139;-47
2023/09/07 00:33:56;;;;;;;3.67;3.05;;;18.30;89.90;;;;;;5047189;28;20442;-47
2023/09/07 00:36:23;;;;;;;5.32;3.55;;;18.20;89.90;;;;;;5043460;28;20413;-50
2023/09/07 00:38:49;;;;;;;4.60;3.75;;;18.20;90.00;;;;;;5032442;28;20040;-49
2023/09/07 00:41:16;;;;;;;5.53;3.03;;;18.20;90.00;;;;;;5053444;28;20033;-50
2023/09/07 00:43:43;;;;;;;6.05;4.05;;;18.20;90.00;;;;;;5035048;28;20035;-51
2023/09/07 00:46:10;;;;;;;4.28;3.65;;;18.20;90.10;;;;;;5053313;28;20428;-47
2023/09/07 00:48:38;;;;;;;5.63;3.50;;;18.20;90.10;;;;;;5052182;28;20500;-50
2023/09/07 00:51:05;;;;;;;5.30;3.63;;;18.10;90.00;;;;;;5029124;28;20441;-48
2023/09/07 00:53:32;;;;;;;5.30;3.10;;;18.10;90.20;;;;;;5015972;28;20031;-48
2023/09/07 00:56:01;;;;;;;4.18;3.70;;;18.10;90.30;;;;;;5058547;28;20085;-48
2023/09/07 00:58:29;;;;;;;4.30;3.42;;;18.00;90.20;;;;;;5057253;28;20037;-47
2023/09/07 01:00:57;;;;;;;5.57;3.35;;;18.00;90.30;;;;;;5035487;28;20037;-47
2023/09/07 01:03:23;;;;;;;6.35;3.88;;;18.00;90.30;;;;;;5072917;28;20111;-48
2023/09/07 01:06:03;;;;;;;4.40;3.60;;;17.90;90.30;;;;;;5054798;28;20028;-49
2023/09/07 01:08:36;;;;;;;6.72;4.55;;;17.90;90.40;;;;;;5032468;28;20041;-46
2023/09/07 01:11:12;;;;;;;4.43;3.67;;;17.90;90.40;;;;;;5007173;28;20064;-47
2023/09/07 01:13:38;;;;;;;3.97;3.53;;;17.90;90.40;;;;;;5052726;28;20039;-46
2023/09/07 01:16:05;;;;;;;5.05;3.38;;;17.90;90.40;;;;;;5052435;28;20025;-47
2023/09/07 01:18:37;;;;;;;4.35;3.67;;;17.90;90.40;;;;;;5040152;28;20485;-47
2023/09/07 01:21:09;;;;;;;4.43;3.88;;;17.90;90.50;;;;;;5046263;28;20047;-47
2023/09/07 01:23:37;;;;;;;5.63;3.55;;;17.80;90.50;;;;;;5071008;28;20028;-49
2023/09/07 01:26:06;;;;;;;5.00;4.50;;;17.80;90.60;;;;;;5056490;28;20025;-50
2023/09/07 01:28:33;;;;;;;7.28;4.55;;;17.80;90.50;;;;;;5065940;28;20477;-51
2023/09/07 01:31:01;;;;;;;5.43;3.83;;;17.80;90.60;;;;;;5051524;28;20028;-48
2023/09/07 01:33:28;;;;;;;5.18;3.88;;;17.80;90.60;;;;;;5072191;28;20441;-47
2023/09/07 01:35:55;;;;;;;5.78;4.57;;;17.80;90.70;;;;;;5045504;28;20029;-50
2023/09/07 01:38:24;;;;;;;4.35;3.95;;;17.70;90.70;;;;;;5049221;28;20358;-47
2023/09/07 01:40:53;;;;;;;4.97;4.22;;;17.70;90.70;;;;;;5050122;28;20025;-46
2023/09/07 01:43:20;;;;;;;6.40;4.05;;;17.70;90.70;;;;;;5032600;28;20033;-49
2023/09/07 01:45:47;;;;;;;6.25;5.10;;;17.70;90.70;;;;;;5061903;28;20039;-46
2023/09/07 01:48:17;;;;;;;4.50;3.80;;;17.70;90.80;;;;;;5066118;28;20198;-48
2023/09/07 01:50:44;;;;;;;4.43;3.60;;;17.70;90.80;;;;;;5042521;28;20042;-49
2023/09/07 01:53:11;;;;;;;5.97;4.25;;;17.60;90.80;;;;;;5032176;28;20470;-50
2023/09/07 01:55:38;;;;;;;6.05;4.22;;;17.60;90.80;;;;;;5032171;28;20359;-47
2023/09/07 01:58:05;;;;;;;5.00;4.15;;;17.60;90.80;;;;;;5035903;28;20044;-52
2023/09/07 02:00:37;;;;;;;4.90;4.40;;;17.60;90.80;;;;;;5064122;28;20068;-47
2023/09/07 02:03:07;;;;;;;4.38;3.85;;;17.60;90.80;;;;;;5070375;28;20361;-50
2023/09/07 02:05:34;;;;;;;5.57;5.05;;;17.60;90.90;;;;;;5051435;28;20497;-45
2023/09/07 02:08:01;;;;;;;4.60;4.07;;;17.60;90.70;;;;;;5054279;28;20149;-46
2023/09/07 02:10:28;;;;;;;5.82;4.40;;;17.60;90.70;;;;;;5072188;28;20150;-52
2023/09/07 02:12:56;;;;;;;5.22;4.68;;;17.50;90.70;;;;;;5049053;28;20086;-47
2023/09/07 02:15:22;;;;;;;6.00;4.38;;;17.50;90.70;;;;;;5067434;28;20044;-47
2023/09/07 02:17:49;;;;;;;5.38;4.43;;;17.50;90.70;;;;;;5072343;28;20099;-47
2023/09/07 02:20:20;;;;;;;6.35;4.05;;;17.50;90.70;;;;;;5042191;28;20021;-47
2023/09/07 02:22:46;;;;;;;6.60;4.80;;;17.40;90.70;;;;;;5038265;28;20031;-49
2023/09/07 02:25:13;;;;;;;4.95;3.95;;;17.50;90.70;;;;;;5074544;28;20036;-45
2023/09/07 02:27:42;;;;;;;7.43;4.78;;;17.40;90.70;;;;;;5052351;28;20044;-46
2023/09/07 02:30:09;;;;;;;5.85;5.15;;;17.40;90.70;;;;;;5036366;28;20116;-50
2023/09/07 02:32:37;;;;;;;5.10;4.25;;;17.40;90.70;;;;;;5075265;28;20039;-49
2023/09/07 02:35:02;;;;;;;7.45;5.63;;;17.40;90.80;;;;;;5056692;28;20033;-46
2023/09/07 02:37:32;;;;;;;5.05;4.45;;;17.40;90.80;;;;;;5054918;28;20033;-46
2023/09/07 02:39:58;;;;;;;6.47;4.60;;;17.40;90.80;;;;;;5041824;28;20484;-45
2023/09/07 02:42:25;;;;;;;5.47;4.95;;;17.40;90.90;;;;;;5069725;28;20333;-47
2023/09/07 02:44:53;;;;;;;5.70;5.07;;;17.40;91.00;;;;;;5071681;28;20062;-48
2023/09/07 02:47:19;;;;;;;6.32;5.30;;;17.40;91.00;;;;;;5071372;28;20049;-45
2023/09/07 02:49:44;;;;;;;6.18;5.28;;;17.40;91.00;;;;;;5068447;28;20079;-48
2023/09/07 02:52:10;;;;;;;5.65;4.60;;;17.40;90.90;;;;;;5057618;28;20496;-46
2023/09/07 02:54:36;;;;;;;5.88;4.93;;;17.40;90.90;;;;;;5073318;28;20033;-48
2023/09/07 02:57:02;;;;;;;6.07;5.28;;;17.50;91.10;;;;;;5041536;28;20052;-46
2023/09/07 02:59:31;;;;;;;5.82;5.22;;;17.50;91.10;;;;;;5073815;28;20405;-45
2023/09/07 03:01:58;;;;;;;6.70;5.10;;;17.50;91.00;;;;;;5054220;28;20056;-45
2023/09/07 03:04:25;;;;;;;11.50;5.32;;;17.50;90.80;;;;;;5062410;28;20103;-48
2023/09/07 03:06:52;;;;;;;8.30;5.28;;;17.50;90.70;;;;;;5075363;28;20071;-47
2023/09/07 03:09:18;;;;;;;7.90;5.10;;;17.50;90.70;;;;;;5075353;28;20028;-47
2023/09/07 03:11:45;;;;;;;9.02;5.45;;;17.50;90.70;;;;;;5069029;28;20037;-48
2023/09/07 03:14:12;;;;;;;5.85;5.25;;;17.50;90.70;;;;;;5059187;28;20025;-49
2023/09/07 03:16:38;;;;;;;6.60;5.50;;;17.50;90.50;;;;;;5071939;28;20341;-47
2023/09/07 03:19:07;;;;;;;6.82;5.32;;;17.50;90.60;;;;;;5072265;28;20438;-45
2023/09/07 03:21:34;;;;;;;6.03;5.30;;;17.40;90.70;;;;;;5043148;28;20045;-45
2023/09/07 03:24:02;;;;;;;6.60;5.30;;;17.40;90.60;;;;;;5074942;28;20111;-49
2023/09/07 03:26:30;;;;;;;6.55;5.68;;;17.40;90.70;;;;;;5066464;28;20104;-45
2023/09/07 03:29:00;;;;;;;7.03;5.45;;;17.40;90.60;;;;;;5058611;28;20533;-48
2023/09/07 03:31:29;;;;;;;7.65;6.35;;;17.40;90.80;;;;;;5054514;28;20051;-46
2023/09/07 03:33:55;;;;;;;10.25;7.18;;;17.40;90.80;;;;;;5036212;28;20031;-48
2023/09/07 03:36:24;;;;;;;7.38;6.45;;;17.40;90.90;;;;;;5040945;28;20027;-48
2023/09/07 03:38:52;;;;;;;6.78;5.60;;;17.40;90.90;;;;;;5057559;28;20351;-44
2023/09/07 03:41:18;;;;;;;7.80;5.38;;;17.40;90.70;;;;;;5070218;28;20036;-47
2023/09/07 03:43:47;;;;;;;7.78;5.85;;;17.40;90.70;;;;;;5073917;28;20112;-46
2023/09/07 03:46:14;;;;;;;11.32;6.30;;;17.40;90.60;;;;;;5045687;28;20032;-44
2023/09/07 03:48:47;;;;;;;6.35;5.72;;;17.40;90.80;;;;;;5066674;28;20340;-45
2023/09/07 03:51:13;;;;;;;7.22;6.38;;;17.40;90.70;;;;;;5066743;28;20040;-45
2023/09/07 03:53:41;;;;;;;9.73;6.32;;;17.40;90.70;;;;;;5074169;28;20024;-44
2023/09/07 03:56:07;;;;;;;9.50;6.05;;;17.40;90.80;;;;;;5068416;28;20029;-45
2023/09/07 03:58:36;;;;;;;6.22;5.63;;;17.30;90.80;;;;;;5017040;28;20091;-45
2023/09/07 04:01:03;;;;;;;7.20;6.45;;;17.30;90.90;;;;;;5040184;28;20040;-45
2023/09/07 04:03:33;;;;;;;7.55;6.65;;;17.30;90.90;;;;;;5048474;28;20056;-46
2023/09/07 04:06:01;;;;;;;;;;;17.30;90.90;;;;;;5062727;28;20664;-47
2023/09/07 04:08:27;;;;;;;6.53;5.65;;;17.20;90.90;;;;;;5033805;28;19913;-45
2023/09/07 04:11:00;;;;;;;7.40;6.60;;;17.20;91.00;;;;;;5000388;28;20035;-46
2023/09/07 04:13:26;;;;;;;7.03;6.32;;;17.20;91.20;;;;;;5037997;28;20033;-45
2023/09/07 04:15:54;;;;;;;11.13;7.25;;;17.20;91.20;;;;;;5027591;28;20085;-48
2023/09/07 04:18:25;;;;;;;9.15;7.95;;;17.10;91.20;;;;;;5073830;28;20020;-50
2023/09/07 04:20:53;;;;;;;15.38;7.40;;;17.10;91.20;;;;;;5073853;28;20024;-48
2023/09/07 04:23:19;;;;;;;8.45;7.10;;;17.10;91.40;;;;;;5040497;28;20036;-46
2023/09/07 04:25:46;;;;;;;7.38;6.68;;;17.20;91.30;;;;;;5040082;28;20032;-45
2023/09/07 04:28:13;;;;;;;8.25;7.45;;;17.10;91.20;;;;;;5054872;28;20067;-44
2023/09/07 04:30:40;;;;;;;8.30;7.05;;;17.20;91.10;;;;;;5038312;28;20043;-45
2023/09/07 04:33:09;;;;;;;10.05;7.78;;;17.10;91.20;;;;;;5064013;28;20334;-44
2023/09/07 04:35:38;;;;;;;7.53;6.72;;;17.10;91.40;;;;;;5057582;28;20021;-45
2023/09/07 04:38:04;;;;;;;8.45;7.53;;;17.10;91.30;;;;;;5055968;28;20517;-47
2023/09/07 04:40:31;;;;;;;10.40;8.15;;;17.10;91.40;;;;;;5063748;28;20033;-45
2023/09/07 04:42:57;;;;;;;11.73;7.90;;;17.10;91.40;;;;;;5044253;28;20464;-47
2023/09/07 04:45:24;;;;;;;9.15;8.25;;;17.20;91.50;;;;;;5065099;28;20037;-47
2023/09/07 04:47:51;;;;;;;12.15;8.98;;;17.30;91.50;;;;;;5063134;28;20140;-47
2023/09/07 04:50:18;;;;;;;10.40;7.65;;;17.30;91.30;;;;;;5043123;28;20132;-47
2023/09/07 04:52:44;;;;;;;9.57;8.20;;;17.30;91.10;;;;;;5058874;28;20029;-45
2023/09/07 04:55:11;;;;;;;8.32;7.45;;;17.30;91.00;;;;;;5054337;28;20462;-44
2023/09/07 04:57:40;;;;;;;8.85;7.43;;;17.40;91.00;;;;;;5058468;28;20115;-46
2023/09/07 05:00:10;;;;;;;8.80;7.90;;;17.30;90.90;;;;;;5040585;28;20426;-45
2023/09/07 05:02:41;;;;;;;9.70;8.60;;;17.40;90.90;;;;;;5060657;28;20094;-45
2023/09/07 05:05:12;;;;;;;8.57;7.78;;;17.40;90.70;;;;;;5058042;28;20450;-46
2023/09/07 05:07:40;;;;;;;8.45;7.55;;;17.40;90.60;;;;;;5073450;28;20044;-46
2023/09/07 05:10:08;;;;;;;17.30;7.70;;;17.40;90.50;;;;;;5063600;28;20055;-44
2023/09/07 05:12:37;;;;;;;9.02;7.05;;;17.40;90.40;;;;;;5034252;28;20037;-44
2023/09/07 05:15:11;;;;;;;7.55;6.43;;;17.40;90.30;;;;;;5059735;28;20036;-47
2023/09/07 05:17:38;;;;;;;7.18;6.30;;;17.40;90.30;;;;;;5071826;28;20043;-47
2023/09/07 05:20:09;;;;;;;11.52;8.40;;;17.40;90.30;;;;;;5071284;28;20028;-45
2023/09/07 05:22:39;;;;;;;11.18;7.13;;;17.40;90.40;;;;;;5066924;28;20103;-45
2023/09/07 05:25:05;;;;;;;8.00;7.28;;;17.40;90.50;;;;;;5065280;28;20024;-46
2023/09/07 05:27:33;;;;;;;8.50;7.05;;;17.40;90.60;;;;;;5050191;28;20021;-47
2023/09/07 05:30:00;;;;;;;9.95;8.70;;;17.40;90.60;;;;;;5033128;28;20025;-47
2023/09/07 05:32:27;;;;;;;9.80;8.63;;;17.40;90.60;;;;;;5045343;28;20025;-44
2023/09/07 05:34:56;;;;;;;9.77;8.05;;;17.40;90.80;;;;;;5040326;28;20063;-45
2023/09/07 05:37:25;;;;;;;9.35;8.32;;;17.50;90.60;;;;;;5058145;28;20024;-45
2023/09/07 05:39:52;;;;;;;10.48;8.15;;;17.50;90.20;;;;;;5053072;28;20029;-44
2023/09/07 05:42:19;;;;;;;13.45;8.20;;;17.60;89.70;;;;;;5030246;28;20045;-46
2023/09/07 05:44:48;;;;;;;10.73;8.23;;;17.70;89.40;;;;;;5057329;28;20034;-49
2023/09/07 05:47:15;;;;;;;8.65;7.75;;;17.70;89.00;;;;;;5058139;28;20040;-45
2023/09/07 05:49:40;;;;;;;8.13;7.32;;;17.80;88.80;;;;;;5065432;28;20036;-45
2023/09/07 05:52:07;;;;;;;9.35;7.80;;;17.80;88.30;;;;;;5051761;28;20108;-44
2023/09/07 05:54:34;;;;;;;11.23;8.13;;;17.90;88.10;;;;;;5056572;28;20035;-48
2023/09/07 05:57:01;;;;;;;8.85;7.95;;;17.90;87.80;;;;;;5055745;28;20136;-44
2023/09/07 05:59:30;;;;;;;9.40;8.07;;;17.90;87.80;;;;;;5055000;28;20021;-50
2023/09/07 06:01:57;;;;;;;10.88;7.60;;;17.90;87.60;;;;;;5053548;28;20415;-50
2023/09/07 06:04:28;;;;;;;8.52;7.38;;;18.00;87.30;;;;;;5033717;28;20378;-45
2023/09/07 06:06:55;;;;;;;13.18;6.97;;;18.00;87.10;;;;;;5066250;28;20044;-45
2023/09/07 06:09:22;;;;;;;10.57;7.10;;;18.10;87.00;;;;;;5059510;28;20032;-45
2023/09/07 06:11:50;;;;;;;14.20;6.53;;;18.20;86.80;;;;;;5067980;28;20418;-49
2023/09/07 06:14:17;;;;;;;9.52;7.40;;;18.20;86.90;;;;;;5060400;28;20025;-48
2023/09/07 06:16:46;;;;;;;9.10;7.78;;;18.20;86.70;;;;;;5063200;28;20027;-48
2023/09/07 06:19:13;;;;;;;9.68;8.77;;;18.20;86.60;;;;;;5070762;28;20035;-47
2023/09/07 06:21:41;;;;;;;8.73;7.82;;;18.30;86.40;;;;;;5026337;28;20462;-46
2023/09/07 06:24:08;;;;;;;11.80;8.73;;;18.30;86.10;;;;;;5014768;28;20124;-48
2023/09/07 06:26:35;;;;;;;10.40;7.85;;;18.40;85.80;;;;;;5052944;28;20044;-46
2023/09/07 06:29:02;;;;;;;9.43;7.53;;;18.40;85.70;;;;;;5059557;28;20052;-49
2023/09/07 06:31:29;;;;;;;8.05;7.32;;;18.50;85.50;;;;;;5057046;28;20022;-48
2023/09/07 06:33:56;;;;;;;7.65;6.85;;;18.50;85.30;;;;;;5040519;28;20030;-45
2023/09/07 06:36:22;;;;;;;9.30;7.20;;;18.60;85.30;;;;;;5029390;28;20435;-49
2023/09/07 06:38:52;;;;;;;8.82;7.50;;;18.60;85.20;;;;;;5066716;28;20093;-48
2023/09/07 06:41:20;;;;;;;10.85;8.07;;;18.70;85.10;;;;;;5048322;28;20094;-49
2023/09/07 06:43:47;;;;;;;8.35;7.55;;;18.70;84.70;;;;;;5041328;28;20041;-48
2023/09/07 06:46:14;;;;;;;10.38;7.07;;;18.80;84.50;;;;;;5032122;28;20037;-48
2023/09/07 06:48:41;;;;;;;10.60;8.00;;;18.90;84.20;;;;;;5030391;28;20040;-50
2023/09/07 06:51:09;;;;;;;9.57;8.05;;;18.90;84.10;;;;;;5047091;28;20113;-46
2023/09/07 06:53:35;;;;;;;9.68;8.55;;;18.90;84.00;;;;;;5033031;28;20021;-48
2023/09/07 06:56:04;;;;;;;11.25;9.25;;;19.00;83.60;;;;;;5048597;28;20094;-47
2023/09/07 06:58:32;;;;;;;10.43;7.85;;;19.00;83.20;;;;;;5061917;28;20445;-50
2023/09/07 07:00:58;;;;;;;8.32;7.43;;;19.10;83.00;;;;;;5049846;28;20453;-51
2023/09/07 07:03:30;;;;;;;9.05;7.07;;;19.20;82.80;;;;;;5054761;28;20102;-48
2023/09/07 07:05:57;;;;;;;11.68;6.47;;;19.30;82.90;;;;;;5062630;28;20030;-51
2023/09/07 07:08:24;;;;;;;9.15;7.57;;;19.30;82.90;;;;;;5035076;28;20420;-50
2023/09/07 07:10:51;;;;;;;10.70;7.20;;;19.30;82.60;;;;;;5018120;28;20044;-52
2023/09/07 07:13:18;;;;;;;10.27;7.43;;;19.40;82.60;;;;;;5065381;28;20052;-49
2023/09/07 07:15:46;;;;;;;7.97;6.60;;;19.40;82.80;;;;;;5042772;28;20041;-49
2023/09/07 07:18:15;;;;;;;8.57;7.18;;;19.50;82.60;;;;;;5030359;28;20028;-50
2023/09/07 07:20:44;;;;;;;11.77;7.47;;;19.50;82.70;;;;;;5060317;28;20071;-52
2023/09/07 07:23:12;;;;;;;7.60;6.80;;;19.60;82.40;;;;;;5048244;28;20135;-49
2023/09/07 07:25:39;;;;;;;14.73;6.85;;;19.60;82.70;;;;;;5055801;28;20083;-48
2023/09/07 07:28:06;;;;;;;10.30;7.70;;;19.70;82.60;;;;;;5048252;28;20401;-50
2023/09/07 07:30:40;;;;;;;8.23;6.40;;;19.80;83.00;;;;;;5047802;28;20036;-49
2023/09/07 07:33:07;;;;;;;11.73;6.70;;;19.90;81.90;;;;;;5037279;28;20033;-51
2023/09/07 07:35:39;;;;;;;9.18;7.10;;;20.10;81.80;;;;;;5042288;28;20660;-53
2023/09/07 07:38:09;;;;;;;10.07;6.07;;;20.30;81.80;;;;;;5054854;28;20108;-51
2023/09/07 07:40:39;;;;;;;10.48;6.35;;;20.50;81.90;;;;;;5050448;28;20021;-52
2023/09/07 07:43:06;;;;;;;6.55;5.65;;;20.90;82.00;;;;;;5043770;28;20025;-51
2023/09/07 07:45:36;;;;;;;7.30;6.18;;;21.20;80.20;;;;;;5046107;28;20067;-53
2023/09/07 07:48:05;;;;;;;9.35;6.13;;;21.60;79.70;;;;;;5048864;28;20415;-53
2023/09/07 07:50:32;;;;;;;5.93;5.32;;;21.90;78.40;;;;;;5046567;28;20041;-51
2023/09/07 07:52:59;;;;;;;9.02;5.60;;;22.40;78.40;;;;;;5050309;28;20056;-52
2023/09/07 07:55:25;;;;;;;6.88;5.28;;;22.80;76.10;;;;;;5035187;28;20431;-51
2023/09/07 07:57:53;;;;;;;7.68;5.80;;;23.10;74.90;;;;;;5052704;28;20043;-51
2023/09/07 08:00:19;;;;;;;7.80;6.15;;;23.40;73.60;;;;;;5051737;28;20024;-55
2023/09/07 08:02:45;;;;;;;7.10;5.30;;;23.60;72.30;;;;;;5031471;28;20037;-53
2023/09/07 08:05:16;;;;;;;6.28;5.68;;;23.70;71.60;;;;;;5036685;28;20056;-51
2023/09/07 08:07:45;;;;;;;8.10;5.65;;;23.90;70.30;;;;;;5053037;28;20029;-53
2023/09/07 08:10:12;;;;;;;7.30;5.10;;;24.20;71.20;;;;;;5051096;28;20128;-53
2023/09/07 08:12:38;;;;;;;9.05;5.40;;;24.30;68.50;;;;;;5045617;28;20109;-56
2023/09/07 08:15:08;;;;;;;8.02;5.13;;;24.40;68.90;;;;;;5031595;28;20342;-54
2023/09/07 08:17:35;;;;;;;7.35;5.03;;;24.70;68.60;;;;;;5052060;28;20670;-54
2023/09/07 08:20:03;;;;;;;7.97;5.55;;;25.10;69.80;;;;;;5034156;28;20128;-55
2023/09/07 08:22:28;;;;;;;6.28;4.95;;;25.40;68.60;;;;;;5050902;28;20104;-53
2023/09/07 08:24:56;;;;;;;8.27;5.82;;;25.60;68.20;;;;;;5025027;28;20116;-54
2023/09/07 08:27:22;;;;;;;7.20;5.07;;;25.60;68.10;;;;;;5044606;28;20116;-56
2023/09/07 08:29:51;;;;;;;6.70;5.82;;;25.70;65.60;;;;;;5051253;28;20100;-55
2023/09/07 08:32:17;;;;;;;7.05;5.38;;;25.80;65.50;;;;;;5053968;28;20119;-56
2023/09/07 08:34:44;;;;;;;7.13;4.82;;;26.10;65.00;;;;;;5028870;28;20116;-54
2023/09/07 08:37:11;;;;;;;6.68;5.20;;;26.20;64.80;;;;;;5061047;28;20033;-54
2023/09/07 08:39:39;;;;;;;9.85;5.00;;;26.30;65.10;;;;;;5044276;28;20028;-54
2023/09/07 08:42:05;;;;;;;8.05;4.85;;;26.40;66.30;;;;;;5031923;28;20032;-54
2023/09/07 08:44:33;;;;;;;7.45;4.70;;;26.50;65.00;;;;;;5033835;28;20029;-52
2023/09/07 08:47:03;;;;;;;5.65;5.03;;;26.60;65.30;;;;;;5050682;28;20025;-52
2023/09/07 08:49:29;;;;;;;6.38;4.95;;;26.80;65.50;;;;;;5050266;28;20028;-56
2023/09/07 08:52:01;;;;;;;7.47;4.63;;;26.90;65.70;;;;;;5029113;28;20033;-53
2023/09/07 08:54:29;;;;;;;7.07;5.13;;;26.90;64.00;;;;;;5014574;28;20025;-55
2023/09/07 08:56:57;;;;;;;6.35;5.40;;;27.20;65.70;;;;;;5032308;28;20177;-55
2023/09/07 08:59:24;;;;;;;7.28;4.82;;;27.30;63.40;;;;;;5032469;28;20065;-56
2023/09/07 09:01:55;;;;;;;5.68;5.07;;;27.40;65.80;;;;;;5031256;28;20109;-55
2023/09/07 09:04:23;;;;;;;8.05;5.03;;;27.60;64.30;;;;;;5032334;28;20041;-55
2023/09/07 09:06:52;;;;;;;8.10;4.43;;;27.60;63.10;;;;;;5033247;28;20025;-57
2023/09/07 09:09:25;;;;;;;9.60;5.50;;;27.90;62.40;;;;;;5014717;28;20037;-53
2023/09/07 09:11:54;;;;;;;8.45;4.47;;;27.80;63.20;;;;;;5012460;28;20522;-53
2023/09/07 09:14:22;;;;;;;;;;;27.90;61.00;;;;;;5013050;28;20034;-57
2023/09/07 09:16:54;;;;;;;4.97;4.18;;;27.70;60.50;;;;;;5011065;28;19906;-57
2023/09/07 09:19:34;;;;;;;8.00;4.60;;;27.80;61.00;;;;;;5025143;28;20033;-52
2023/09/07 09:22:03;;;;;;;;;;;27.50;62.70;;;;;;5032231;28;20052;-57
2023/09/07 09:24:34;;;;;;;8.10;5.57;;;27.70;64.30;;;;;;5012771;28;19909;-58
2023/09/07 09:27:01;;;;;;;5.68;5.10;;;27.60;61.60;;;;;;5031177;28;20075;-52
2023/09/07 09:29:27;;;;;;;7.80;4.32;;;27.70;62.40;;;;;;5012607;28;20026;-57
2023/09/07 09:31:55;;;;;;;6.63;5.13;;;27.90;61.30;;;;;;5028008;28;20071;-57
2023/09/07 09:34:22;;;;;;;4.65;3.75;;;28.00;60.70;;;;;;5030526;28;20083;-54
2023/09/07 09:36:51;;;;;;;7.35;5.30;;;27.90;61.70;;;;;;5014246;28;20029;-57
2023/09/07 09:39:24;;;;;;;5.40;4.32;;;27.90;58.80;;;;;;5030740;28;20060;-58
2023/09/07 09:41:52;;;;;;;5.97;4.45;;;27.90;62.10;;;;;;5026791;28;20033;-56
2023/09/07 09:44:26;;;;;;;6.00;4.35;;;28.10;61.90;;;;;;5012774;28;20393;-57
2023/09/07 09:46:56;;;;;;;7.03;4.47;;;28.20;59.60;;;;;;5012414;28;20052;-58
2023/09/07 09:49:25;;;;;;;5.00;4.20;;;28.30;59.70;;;;;;5030752;28;20401;-56
2023/09/07 09:51:52;;;;;;;6.72;4.40;;;28.20;58.50;;;;;;5029656;28;20048;-57
2023/09/07 09:54:26;;;;;;;6.68;4.85;;;28.20;60.80;;;;;;5033463;28;20021;-57
2023/09/07 09:56:51;;;;;;;6.70;4.45;;;28.40;61.80;;;;;;5000980;28;20021;-56
2023/09/07 09:59:19;;;;;;;7.20;4.78;;;28.40;61.20;;;;;;5030739;28;20680;-56
2023/09/07 10:01:48;;;;;;;5.68;4.82;;;28.40;60.30;;;;;;5012698;28;20372;-54
2023/09/07 10:04:17;;;;;;;8.98;5.28;;;28.50;58.50;;;;;;5012016;28;20038;-54
2023/09/07 10:07:05;;;;;;;5.03;4.00;;;28.60;58.20;;;;;;5012229;28;20407;-57
2023/09/07 10:09:40;;;;;;;8.52;5.30;;;28.50;58.60;;;;;;5011900;28;20029;-55
2023/09/07 10:12:11;;;;;;;6.85;5.15;;;28.60;58.30;;;;;;5011427;28;20029;-58
2023/09/07 10:14:45;;;;;;;7.18;4.43;;;28.50;58.60;;;;;;5027498;28;20040;-56
2023/09/07 10:17:22;;;;;;;6.82;4.43;;;28.60;57.40;;;;;;5012556;28;20404;-58
2023/09/07 10:19:51;;;;;;;5.15;4.20;;;28.80;58.30;;;;;;5012420;28;20108;-57
2023/09/07 10:22:25;;;;;;;6.03;4.13;;;28.70;56.80;;;;;;5012557;28;20026;-57
2023/09/07 10:25:01;;;;;;;5.57;5.03;;;28.50;54.80;;;;;;4994463;28;20037;-55
2023/09/07 10:27:39;;;;;;;6.53;4.40;;;28.40;55.30;;;;;;4995201;28;20041;-58
2023/09/07 10:30:13;;;;;;;4.50;3.92;;;28.30;56.90;;;;;;4995369;28;20402;-58
2023/09/07 10:32:42;;;;;;;9.10;5.28;;;28.20;56.40;;;;;;5012739;28;20029;-58
2023/09/07 10:35:16;;;;;;;;;;;28.10;56.50;;;;;;5012776;28;20018;-55
2023/09/07 10:37:46;;;;;;;6.47;4.25;;;28.20;55.80;;;;;;5012742;28;19916;-53
2023/09/07 10:40:18;;;;;;;10.57;3.95;;;28.20;55.30;;;;;;4995068;28;20026;-57
2023/09/07 10:42:45;;;;;;;5.00;4.40;;;28.20;55.50;;;;;;5015535;28;20025;-54
2023/09/07 10:45:18;;;;;;;7.07;4.43;;;28.30;56.70;;;;;;5027194;28;20061;-55
2023/09/07 10:47:45;;;;;;;7.05;4.32;;;28.20;56.20;;;;;;5035845;28;20021;-57
2023/09/07 10:50:15;;;;;;;5.03;4.53;;;28.20;55.60;;;;;;5024897;28;20083;-57
2023/09/07 10:52:43;;;;;;;5.55;4.50;;;28.20;57.40;;;;;;5038264;28;20323;-58
2023/09/07 10:55:13;;;;;;;7.38;4.53;;;28.20;56.90;;;;;;5039183;28;20335;-56
2023/09/07 10:57:46;;;;;;;6.30;4.28;;;28.40;59.30;;;;;;5036598;28;20060;-53
2023/09/07 11:00:13;;;;;;;9.15;4.22;;;28.50;58.00;;;;;;5054982;28;20083;-55
2023/09/07 11:02:42;;;;;;;4.63;3.92;;;28.70;57.40;;;;;;5047571;28;20814;-58
2023/09/07 11:05:10;;;;;;;5.45;4.55;;;28.70;55.80;;;;;;5035280;28;20361;-57
2023/09/07 11:07:37;;;;;;;4.40;3.47;;;28.70;56.10;;;;;;5034353;28;20418;-58
2023/09/07 11:10:06;;;;;;;5.68;3.72;;;28.70;57.30;;;;;;5027209;28;20517;-57
2023/09/07 11:12:40;;;;;;;5.45;4.28;;;28.70;55.80;;;;;;5034938;28;20516;-60
2023/09/07 11:15:10;;;;;;;4.53;3.22;;;28.60;55.10;;;;;;5034692;28;20332;-56
2023/09/07 11:17:39;;;;;;;4.50;3.53;;;28.60;55.50;;;;;;5034842;28;20029;-56
2023/09/07 11:20:06;;;;;;;;;;;28.80;56.60;;;;;;5034568;28;20041;-58
2023/09/07 11:22:33;;;;;;;4.28;3.85;;;28.70;55.10;;;;;;5036996;28;19951;-57
2023/09/07 11:25:05;;;;;;;7.03;4.13;;;28.70;54.50;;;;;;5050222;28;20092;-57
2023/09/07 11:27:32;;;;;;;5.35;3.75;;;28.60;53.30;;;;;;5043929;28;20055;-53
2023/09/07 11:30:00;;;;;;;5.07;3.80;;;28.50;54.20;;;;;;5061092;28;20064;-58
2023/09/07 11:32:34;;;;;;;5.25;3.78;;;28.40;54.60;;;;;;5027436;28;20045;-57
2023/09/07 11:35:01;;;;;;;7.53;4.07;;;28.30;53.50;;;;;;5061837;28;20032;-58
2023/09/07 11:37:28;;;;;;;4.63;3.47;;;28.30;54.40;;;;;;5036499;28;20024;-53
2023/09/07 11:39:58;;;;;;;5.15;3.90;;;28.40;53.00;;;;;;5046111;28;20520;-57
2023/09/07 11:42:25;;;;;;;5.03;4.30;;;28.40;53.20;;;;;;5043404;28;20036;-58
2023/09/07 11:44:52;;;;;;;8.80;4.38;;;28.40;56.60;;;;;;5063204;28;20022;-57
2023/09/07 11:47:18;;;;;;;5.38;3.88;;;28.40;54.30;;;;;;5052256;28;20039;-57
2023/09/07 11:49:44;;;;;;;7.10;4.00;;;28.40;54.90;;;;;;5038461;28;20040;-58
2023/09/07 11:52:11;;;;;;;5.40;4.10;;;28.50;57.60;;;;;;5060694;28;20025;-58
2023/09/07 11:54:38;;;;;;;7.07;4.05;;;28.60;56.90;;;;;;5064409;28;20082;-56
2023/09/07 11:57:04;;;;;;;6.90;4.18;;;28.60;57.50;;;;;;5056058;28;20027;-57
2023/09/07 11:59:35;;;;;;;5.72;4.13;;;28.70;55.60;;;;;;5059792;28;20040;-57
2023/09/07 12:02:01;;;;;;;6.78;4.07;;;28.60;55.00;;;;;;5053861;28;20025;-58
2023/09/07 12:04:36;;;;;;;5.13;3.90;;;28.40;55.00;;;;;;5068683;28;20028;-58
2023/09/07 12:07:03;;;;;;;5.82;3.63;;;28.30;53.90;;;;;;5046865;28;20098;-58
2023/09/07 12:09:30;;;;;;;4.85;3.60;;;28.20;54.80;;;;;;5037751;28;20061;-57
2023/09/07 12:11:56;;;;;;;4.78;3.92;;;28.10;54.00;;;;;;5073838;28;20044;-57
2023/09/07 12:14:22;;;;;;;6.47;3.40;;;28.20;56.50;;;;;;5033868;28;20025;-56
2023/09/07 12:16:49;;;;;;;8.15;4.18;;;28.20;56.80;;;;;;5043866;28;20488;-56
2023/09/07 12:19:16;;;;;;;8.15;4.10;;;28.20;55.00;;;;;;5034835;28;20346;-58
2023/09/07 12:21:43;;;;;;;5.90;4.15;;;28.20;55.20;;;;;;5045900;28;20052;-58
2023/09/07 12:24:12;;;;;;;8.30;4.13;;;28.10;53.90;;;;;;5048403;28;20028;-58
2023/09/07 12:26:39;;;;;;;6.93;5.20;;;28.00;54.00;;;;;;5054734;28;20104;-58
2023/09/07 12:29:07;;;;;;;7.82;4.20;;;28.00;55.70;;;;;;5043637;28;20060;-58
2023/09/07 12:31:37;;;;;;;5.80;3.87;;;28.10;54.70;;;;;;5051228;28;20052;-58
2023/09/07 12:34:04;;;;;;;5.10;3.70;;;28.00;53.60;;;;;;5041638;28;20276;-58
2023/09/07 12:36:31;;;;;;;5.00;3.70;;;28.00;53.50;;;;;;5046882;28;20112;-58
2023/09/07 12:39:01;;;;;;;4.78;3.65;;;27.90;54.40;;;;;;5051286;28;20107;-58
2023/09/07 12:41:29;;;;;;;15.13;5.15;;;28.00;54.70;;;;;;5035054;28;20600;-59
2023/09/07 12:43:56;;;;;;;13.02;4.25;;;27.90;52.90;;;;;;5048277;28;20029;-58
2023/09/07 12:46:23;;;;;;;8.32;4.05;;;27.90;55.40;;;;;;5050945;28;20040;-58
2023/09/07 12:48:49;;;;;;;5.10;3.40;;;27.90;54.50;;;;;;5052886;28;20037;-58
2023/09/07 12:51:19;;;;;;;7.18;3.35;;;28.00;54.60;;;;;;5047360;28;20041;-58
2023/09/07 12:53:46;;;;;;;5.55;3.40;;;28.00;51.90;;;;;;5047498;28;20048;-58